Time;durP1;ratioP1;P1;durP2;ratioP2;P2;SDS_P1;SDS_P2;PMS_P1;PMS_P2;Temp;Humidity;BMP_temperature;BMP_pressure;BME280_temperature;BME280_humidity;BME280_pressure;Samples;Min_cycle;Max_cycle;Signal;HPM_P1;HPM_P2
2022/08/27 00:00:45;;;;;;;4.65;1.85;;;;;;;;;;4960289;29;20530;-78
2022/08/27 00:03:12;;;;;;;7.45;1.80;;;;;;;18.00;86.14;68769.41;4947048;29;20491;-78
2022/08/27 00:05:38;;;;;;;5.47;1.63;;;;;;;17.97;86.32;68766.00;4943032;29;20038;-78
2022/08/27 00:08:04;;;;;;;5.43;1.80;;;;;;;;;;4950098;29;20039;-78
2022/08/27 00:10:30;;;;;;;9.05;2.30;;;;;;;17.98;86.03;68772.50;4956338;29;20043;-79
2022/08/27 00:12:55;;;;;;;6.70;2.03;;;;;;;17.89;86.15;68762.81;4947261;29;20045;-78
2022/08/27 00:15:21;;;;;;;7.35;1.80;;;;;;;17.92;86.07;68760.28;4946987;29;20044;-78
2022/08/27 00:17:47;;;;;;;5.30;1.92;;;;;;;17.92;86.21;68765.66;4954475;29;20487;-78
2022/08/27 00:20:20;;;;;;;5.30;1.65;;;;;;;17.96;86.24;68764.84;4961561;29;20126;-78
2022/08/27 00:22:46;;;;;;;6.00;2.00;;;;;;;17.90;86.27;68763.97;4936530;29;20060;-78
2022/08/27 00:25:12;;;;;;;7.72;2.17;;;;;;;;;;4952885;28;20059;-78
2022/08/27 00:27:38;;;;;;;5.22;1.70;;;;;;;17.97;85.79;68766.00;4957778;29;20495;-78
2022/08/27 00:30:07;;;;;;;4.82;1.98;;;;;;;17.96;85.84;68762.72;4960687;28;20132;-78
2022/08/27 00:32:32;;;;;;;5.85;2.03;;;;;;;17.91;86.02;68764.53;4961793;29;20078;-78
2022/08/27 00:34:57;;;;;;;6.50;2.13;;;;;;;17.85;86.25;68758.25;4960883;29;20455;-78
2022/08/27 00:37:23;;;;;;;9.57;1.95;;;;;;;17.96;86.04;68764.84;4960419;29;20039;-78
2022/08/27 00:39:48;;;;;;;4.38;1.83;;;;;;;17.88;86.25;68755.72;4958787;29;20059;-78
2022/08/27 00:42:14;;;;;;;6.03;2.03;;;;;;;17.92;86.40;68765.66;4960239;29;20069;-78
2022/08/27 00:44:40;;;;;;;6.30;2.05;;;;;;;17.89;86.31;68757.44;4959797;29;20576;-78
2022/08/27 00:47:09;;;;;;;6.53;2.13;;;;;;;;;;4960084;29;20107;-78
2022/08/27 00:49:40;;;;;;;6.70;2.15;;;;;;;;;;4959293;29;20051;-79
2022/08/27 00:52:20;;;;;;;6.63;2.10;;;;;;;;;;4948859;29;20242;-78
2022/08/27 00:54:46;;;;;;;5.30;1.95;;;;;;;;;;4944706;29;20040;-78
2022/08/27 00:57:13;;;;;;;6.75;2.03;;;;;;;17.83;86.50;68750.00;4941930;29;20071;-78
2022/08/27 00:59:40;;;;;;;4.70;1.92;;;;;;;;;;4938017;29;20049;-78
2022/08/27 01:02:18;;;;;;;7.57;2.10;;;;;;;17.82;86.15;68754.84;4927145;29;20048;-79
2022/08/27 01:04:52;;;;;;;6.70;1.83;;;;;;;17.83;86.04;68750.00;4943465;29;20043;-78
2022/08/27 01:07:19;;;;;;;9.75;2.35;;;;;;;17.71;86.36;68737.44;4944396;29;20239;-78
2022/08/27 01:09:47;;;;;;;5.95;2.10;;;;;;;17.77;85.75;68744.28;4943389;29;20111;-78
2022/08/27 01:12:12;;;;;;;5.07;2.33;;;;;;;;;;4934595;29;20031;-77
2022/08/27 01:14:38;;;;;;;5.90;1.88;;;;;;;17.69;86.22;68735.16;4926252;29;20421;-77
2022/08/27 01:17:06;;;;;;;7.30;2.53;;;;;;;17.67;86.26;68738.25;4921371;29;20521;-77
2022/08/27 01:19:49;;;;;;;7.10;2.25;;;;;;;17.72;86.20;68743.97;4951201;29;20076;-77
2022/08/27 01:22:14;;;;;;;6.57;2.13;;;;;;;;;;4895150;29;20135;-77
2022/08/27 01:24:44;;;;;;;6.47;2.00;;;;;;;17.67;86.10;68732.31;4934381;29;20119;-77
2022/08/27 01:27:13;;;;;;;6.18;2.00;;;;;;;17.70;85.72;68741.13;4937781;29;20066;-77
2022/08/27 01:29:39;;;;;;;5.88;1.88;;;;;;;;;;4900545;29;20552;-78
2022/08/27 01:32:08;;;;;;;5.18;2.38;;;;;;;;;;4929248;29;20079;-77
2022/08/27 01:34:34;;;;;;;6.97;2.20;;;;;;;;;;4932073;29;20514;-77
2022/08/27 01:37:00;;;;;;;6.97;2.47;;;;;;;;;;4928433;29;20047;-77
2022/08/27 01:39:25;;;;;;;6.35;2.25;;;;;;;17.63;85.76;68733.13;4927725;29;20071;-77
2022/08/27 01:41:51;;;;;;;5.25;2.38;;;;;;;17.56;85.99;68720.31;4917773;29;20036;-77
2022/08/27 01:44:16;;;;;;;8.73;2.60;;;;;;;17.57;85.63;68729.53;4904323;29;20429;-77
2022/08/27 01:46:42;;;;;;;6.50;2.50;;;;;;;17.57;85.71;68726.84;4923254;29;20138;-77
2022/08/27 01:49:08;;;;;;;3.85;2.05;;;;;;;;;;4930320;29;20040;-77
2022/08/27 01:51:33;;;;;;;6.95;2.10;;;;;;;;;;4930747;29;20049;-77
2022/08/27 01:53:59;;;;;;;6.60;2.17;;;;;;;17.56;85.66;68720.88;4914655;29;20118;-77
2022/08/27 01:56:24;;;;;;;8.38;1.73;;;;;;;;;;4928832;29;20043;-77
2022/08/27 01:58:50;;;;;;;5.28;2.10;;;;;;;17.56;85.66;68720.31;4929454;29;20550;-77
2022/08/27 02:01:15;;;;;;;5.07;2.05;;;;;;;;;;4927453;29;20661;-77
2022/08/27 02:03:41;;;;;;;5.38;2.20;;;;;;;;;;4928726;29;20043;-77
2022/08/27 02:06:09;;;;;;;5.13;2.10;;;;;;;17.49;85.87;68720.41;4929947;29;20396;-77
2022/08/27 02:08:35;;;;;;;6.40;2.37;;;;;;;17.46;85.88;68716.97;4930362;29;20047;-77
2022/08/27 02:11:00;;;;;;;6.20;2.17;;;;;;;;;;4919556;29;20044;-77
2022/08/27 02:13:26;;;;;;;6.25;2.38;;;;;;;;;;4930400;29;20059;-77
2022/08/27 02:15:52;;;;;;;5.97;2.15;;;;;;;;;;4928252;29;20081;-77
2022/08/27 02:18:17;;;;;;;6.45;2.55;;;;;;;17.45;84.83;68713.16;4923755;29;20044;-77
2022/08/27 02:20:47;;;;;;;5.00;2.28;;;;;;;17.46;84.57;68714.84;4899015;29;20055;-77
2022/08/27 02:23:14;;;;;;;7.53;2.38;;;;;;;;;;4924239;29;20048;-77
2022/08/27 02:25:40;;;;;;;5.57;2.20;;;;;;;17.42;84.74;68709.72;4924057;29;20051;-77
2022/08/27 02:28:05;;;;;;;4.18;1.67;;;;;;;;;;4928736;29;20039;-77
2022/08/27 02:30:32;;;;;;;9.82;2.35;;;;;;;;;;4919490;29;20176;-77
2022/08/27 02:33:01;;;;;;;5.97;2.20;;;;;;;17.36;84.33;68704.03;4922376;29;20044;-77
2022/08/27 02:35:27;;;;;;;6.97;1.98;;;;;;;;;;4928656;29;20040;-77
2022/08/27 02:37:53;;;;;;;5.30;2.10;;;;;;;17.30;84.45;68697.19;4932983;29;20035;-77
2022/08/27 02:40:19;;;;;;;5.68;2.70;;;;;;;;;;4939853;29;20379;-77
2022/08/27 02:42:45;;;;;;;7.22;2.28;;;;;;;;;;4938768;29;20082;-77
2022/08/27 02:45:12;;;;;;;6.72;1.98;;;;;;;17.28;84.06;68694.88;4949105;29;20084;-77
2022/08/27 02:47:37;;;;;;;7.60;2.33;;;;;;;17.25;84.04;68685.53;4941975;29;20123;-77
2022/08/27 02:50:04;;;;;;;6.15;2.40;;;;;;;17.25;83.91;68686.09;4906546;29;20126;-77
2022/08/27 02:52:29;;;;;;;6.47;1.88;;;;;;;;;;4921081;29;20035;-77
2022/08/27 02:54:55;;;;;;;8.00;1.83;;;;;;;;;;4953114;29;20194;-77
2022/08/27 02:57:21;;;;;;;5.63;2.35;;;;;;;;;;4953059;29;20043;-77
2022/08/27 02:59:47;;;;;;;5.88;2.25;;;;;;;17.25;83.56;68691.47;4954605;29;20159;-77
2022/08/27 03:02:13;;;;;;;5.47;1.65;;;;;;;17.21;84.08;68681.53;4953789;29;20065;-77
2022/08/27 03:04:39;;;;;;;7.22;2.50;;;;;;;17.22;84.07;68679.41;4955346;29;20070;-77
2022/08/27 03:07:05;;;;;;;5.35;2.25;;;;;;;17.11;84.57;68675.50;4939912;29;20044;-77
2022/08/27 03:09:31;;;;;;;5.47;1.88;;;;;;;17.10;84.85;68666.28;4946425;29;20039;-76
2022/08/27 03:11:57;;;;;;;5.35;2.35;;;;;;;;;;4953064;29;20067;-77
2022/08/27 03:14:22;;;;;;;7.75;2.53;;;;;;;17.01;85.49;68658.72;4953607;29;20686;-77
2022/08/27 03:16:47;;;;;;;8.43;2.55;;;;;;;16.90;85.86;68646.75;4952191;29;20047;-77
2022/08/27 03:19:14;;;;;;;7.25;2.75;;;;;;;16.88;86.15;68650.41;4952995;29;20041;-77
2022/08/27 03:21:39;;;;;;;6.40;2.80;;;;;;;;;;4948910;29;20039;-77
2022/08/27 03:24:05;;;;;;;8.45;3.42;;;;;;;16.79;86.65;68640.13;4952500;29;20043;-77
2022/08/27 03:26:33;;;;;;;6.22;3.45;;;;;;;16.66;87.21;68625.31;4952126;29;20036;-77
2022/08/27 03:28:59;;;;;;;9.77;4.00;;;;;;;16.55;87.93;68607.38;4942216;29;20103;-77
2022/08/27 03:31:26;;;;;;;7.60;4.25;;;;;;;16.47;88.43;68607.47;4947285;29;20487;-77
2022/08/27 03:33:54;;;;;;;8.80;4.32;;;;;;;16.43;88.42;68594.84;4941950;29;20115;-77
2022/08/27 03:36:20;;;;;;;7.75;3.92;;;;;;;;;;4951578;29;20872;-77
2022/08/27 03:38:45;;;;;;;10.50;4.15;;;;;;;;;;4947577;29;20043;-77
2022/08/27 03:41:12;;;;;;;7.47;4.00;;;;;;;16.18;89.78;68566.34;4934046;29;20406;-77
2022/08/27 03:43:38;;;;;;;8.38;4.45;;;;;;;16.09;90.22;68561.47;4950494;29;20087;-77
2022/08/27 03:46:03;;;;;;;7.25;4.40;;;;;;;16.01;90.61;68553.47;4951991;29;20051;-77
2022/08/27 03:48:30;;;;;;;10.98;4.85;;;;;;;;;;4934635;29;20090;-77
2022/08/27 03:50:56;;;;;;;10.00;4.60;;;;;;;15.94;90.94;68547.59;4947180;29;20103;-77
2022/08/27 03:53:21;;;;;;;7.18;3.80;;;;;;;15.88;91.37;68532.72;4947611;29;20054;-77
2022/08/27 03:55:47;;;;;;;7.32;3.90;;;;;;;15.86;91.16;68539.06;4951018;29;20039;-77
2022/08/27 03:58:13;;;;;;;11.10;4.15;;;;;;;15.74;91.70;68523.28;4952621;29;20043;-77
2022/08/27 04:00:39;;;;;;;9.88;4.43;;;;;;;15.79;91.75;68523.03;4937781;29;20039;-77
2022/08/27 04:03:06;;;;;;;9.13;4.25;;;;;;;15.66;92.25;68508.22;4951712;28;20102;-77
2022/08/27 04:05:32;;;;;;;6.13;4.20;;;;;;;15.66;92.37;68514.13;4948139;29;20058;-77
2022/08/27 04:07:58;;;;;;;8.52;4.53;;;;;;;15.66;92.31;68508.22;4951566;29;20055;-77
2022/08/27 04:10:23;;;;;;;7.68;4.10;;;;;;;15.62;92.54;68509.00;4949163;29;20051;-77
2022/08/27 04:12:49;;;;;;;8.95;4.55;;;;;;;15.57;92.64;68503.88;4940155;29;20063;-77
2022/08/27 04:15:14;;;;;;;8.48;4.20;;;;;;;15.56;92.85;68503.31;4951884;29;20126;-78
2022/08/27 04:17:40;;;;;;;8.35;4.28;;;;;;;15.50;93.10;68498.59;4950308;29;20098;-77
2022/08/27 04:20:08;;;;;;;7.63;4.07;;;;;;;15.46;93.27;68491.91;4952447;29;20089;-77
2022/08/27 04:22:33;;;;;;;10.00;4.47;;;;;;;15.45;93.40;68492.88;4951028;29;20039;-77
2022/08/27 04:24:59;;;;;;;10.68;4.55;;;;;;;15.42;93.32;68487.38;4945962;29;20052;-76
2022/08/27 04:27:26;;;;;;;8.63;4.47;;;;;;;15.38;93.75;68482.81;4930744;29;20042;-76
2022/08/27 04:29:57;;;;;;;10.00;4.70;;;;;;;15.37;93.84;68481.66;4934647;29;20131;-76
2022/08/27 04:32:23;;;;;;;8.20;4.75;;;;;;;15.34;94.26;68472.88;4931853;29;20058;-76
2022/08/27 04:34:51;;;;;;;9.52;5.00;;;;;;;15.32;93.72;68475.97;4938282;29;20043;-76
2022/08/27 04:37:17;;;;;;;7.18;4.38;;;;;;;15.39;93.77;68483.38;4936921;29;20399;-76
2022/08/27 04:39:42;;;;;;;11.45;5.32;;;;;;;15.31;93.80;68469.47;4942972;29;20035;-77
2022/08/27 04:42:07;;;;;;;9.68;4.93;;;;;;;;;;4934702;29;20044;-76
2022/08/27 04:44:33;;;;;;;7.93;4.70;;;;;;;15.31;94.05;68464.13;4927481;29;20094;-76
2022/08/27 04:46:59;;;;;;;10.30;4.60;;;;;;;;;;4948611;29;20297;-76
2022/08/27 04:49:25;;;;;;;8.10;4.35;;;;;;;;;;4951367;29;20083;-76
2022/08/27 04:51:51;;;;;;;8.32;4.30;;;;;;;;;;4941429;29;20087;-76
2022/08/27 04:54:16;;;;;;;9.13;4.78;;;;;;;15.29;94.31;68467.75;4950100;29;20051;-77
2022/08/27 04:56:42;;;;;;;7.35;4.70;;;;;;;15.28;94.61;68471.41;4949765;29;20043;-77
2022/08/27 04:59:08;;;;;;;7.95;4.50;;;;;;;15.30;94.42;68468.31;4932735;29;20138;-76
2022/08/27 05:01:35;;;;;;;8.25;4.50;;;;;;;15.35;94.04;68479.94;4938008;29;20683;-75
2022/08/27 05:04:01;;;;;;;9.77;4.95;;;;;;;15.33;94.01;68477.09;4932216;29;20043;-76
2022/08/27 05:06:27;;;;;;;8.75;5.22;;;;;;;15.34;93.77;68478.81;4950621;29;20070;-76
2022/08/27 05:08:53;;;;;;;10.98;5.03;;;;;;;15.28;94.36;68472.00;4947855;29;20043;-76
2022/08/27 05:11:20;;;;;;;10.93;4.80;;;;;;;15.30;94.26;68473.69;4950456;29;20090;-75
2022/08/27 05:13:46;;;;;;;10.35;4.70;;;;;;;15.36;94.16;68475.16;4937096;29;20459;-77
2022/08/27 05:16:12;;;;;;;10.45;5.00;;;;;;;;;;4949410;28;20422;-76
2022/08/27 05:18:39;;;;;;;10.63;5.32;;;;;;;15.33;94.06;68477.09;4934210;29;20039;-77
2022/08/27 05:21:05;;;;;;;9.27;5.10;;;;;;;15.27;94.56;68464.91;4917052;29;20043;-75
2022/08/27 05:23:31;;;;;;;9.98;5.10;;;;;;;;;;4942756;29;20090;-76
2022/08/27 05:25:56;;;;;;;10.40;5.15;;;;;;;;;;4949398;29;20079;-76
2022/08/27 05:28:23;;;;;;;9.10;4.93;;;;;;;;;;4947816;29;20047;-77
2022/08/27 05:30:51;;;;;;;11.23;4.97;;;;;;;15.28;94.77;68474.09;4937104;29;20498;-77
2022/08/27 05:33:20;;;;;;;9.05;4.93;;;;;;;15.33;94.61;68477.09;4930479;29;20047;-77
2022/08/27 05:35:49;;;;;;;7.25;4.47;;;;;;;15.38;94.43;68474.75;4935470;29;20043;-77
2022/08/27 05:38:16;;;;;;;10.88;5.00;;;;;;;15.43;94.01;68488.50;4927211;29;20036;-76
2022/08/27 05:40:42;;;;;;;9.05;4.90;;;;;;;15.40;93.99;68484.53;4930382;29;20554;-77
2022/08/27 05:43:08;;;;;;;12.48;5.32;;;;;;;;;;4945222;29;20766;-76
2022/08/27 05:45:42;;;;;;;10.18;4.63;;;;;;;15.33;94.53;68471.75;4948511;28;20043;-77
2022/08/27 05:48:10;;;;;;;10.43;5.35;;;;;;;15.36;94.14;68480.50;4949788;29;20105;-76
2022/08/27 05:50:36;;;;;;;11.70;5.13;;;;;;;;;;4944413;29;20613;-77
2022/08/27 05:53:01;;;;;;;8.07;5.00;;;;;;;15.34;94.38;68478.25;4925400;29;20046;-77
2022/08/27 05:55:29;;;;;;;11.00;5.30;;;;;;;;;;4929924;29;20057;-77
2022/08/27 05:57:54;;;;;;;8.45;4.50;;;;;;;;;;4941415;29;20058;-77
2022/08/27 06:03:03;;;;;;;11.55;5.18;;;;;;;;;;4927978;29;20070;-77
2022/08/27 06:05:28;;;;;;;10.23;5.25;;;;;;;15.34;94.44;68472.88;4917362;29;20495;-76
2022/08/27 06:07:54;;;;;;;9.27;5.57;;;;;;;15.34;94.43;68478.25;4911320;29;20691;-77
2022/08/27 06:10:19;;;;;;;7.45;5.65;;;;;;;15.40;94.58;68485.09;4910350;29;20068;-77
2022/08/27 06:12:45;;;;;;;10.80;5.57;;;;;;;15.50;93.96;68496.47;4899676;29;20066;-77
2022/08/27 06:15:11;;;;;;;9.02;5.28;;;;;;;15.52;93.07;68493.38;4939718;29;20039;-77
2022/08/27 06:17:36;;;;;;;7.53;5.13;;;;;;;15.56;93.55;68497.38;4907673;29;20052;-76
2022/08/27 06:20:02;;;;;;;11.15;5.20;;;;;;;;;;4911745;29;20029;-77
2022/08/27 06:22:27;;;;;;;7.97;4.97;;;;;;;15.78;92.76;68521.91;4909847;29;20492;-77
2022/08/27 06:24:53;;;;;;;10.90;5.00;;;;;;;15.81;91.83;68530.69;4907919;29;20043;-77
2022/08/27 06:27:19;;;;;;;9.52;4.85;;;;;;;16.05;91.50;68557.47;4910156;29;20380;-77
2022/08/27 06:29:45;;;;;;;10.32;4.45;;;;;;;16.22;91.22;68576.84;4912569;29;20135;-77
2022/08/27 06:32:12;;;;;;;7.65;4.22;;;;;;;16.19;90.57;68567.47;4911396;29;20042;-77
2022/08/27 06:34:38;;;;;;;9.77;4.45;;;;;;;16.31;90.44;68586.53;4926870;29;20048;-77
2022/08/27 06:37:03;;;;;;;7.15;4.15;;;;;;;;;;4899123;29;20111;-77
2022/08/27 06:39:30;;;;;;;7.43;4.10;;;;;;;;;;4899383;29;20517;-77
2022/08/27 06:41:56;;;;;;;7.63;3.97;;;;;;;16.45;89.02;68593.84;4899119;29;20047;-77
2022/08/27 06:44:23;;;;;;;7.80;3.88;;;;;;;;;;4906128;29;20196;-77
2022/08/27 06:46:48;;;;;;;7.85;3.50;;;;;;;;;;4903809;29;20148;-77
2022/08/27 06:49:13;;;;;;;5.95;3.00;;;;;;;;;;4905262;29;20052;-77
2022/08/27 06:51:44;;;;;;;7.67;3.50;;;;;;;16.71;88.78;68625.63;4905900;29;20118;-77
2022/08/27 06:54:13;;;;;;;9.15;3.40;;;;;;;;;;4906543;29;20280;-77
2022/08/27 06:56:41;;;;;;;7.47;4.03;;;;;;;16.77;88.06;68632.47;4902651;29;20048;-77
2022/08/27 06:59:11;;;;;;;7.05;3.10;;;;;;;16.75;87.82;68635.00;4896703;29;20136;-77
2022/08/27 07:01:42;;;;;;;6.80;3.20;;;;;;;16.87;87.16;68643.88;4897595;29;20117;-77
2022/08/27 07:04:11;;;;;;;9.32;3.70;;;;;;;;;;4910401;29;20654;-77
2022/08/27 07:06:37;;;;;;;7.75;3.20;;;;;;;;;;4923011;29;20455;-77
2022/08/27 07:09:03;;;;;;;8.38;3.55;;;;;;;;;;4906113;29;20047;-77
2022/08/27 07:11:31;;;;;;;6.55;3.70;;;;;;;;;;4922786;29;20031;-77
2022/08/27 07:13:56;;;;;;;8.90;3.83;;;;;;;;;;4928187;29;20454;-77
2022/08/27 07:16:23;;;;;;;7.55;3.88;;;;;;;17.00;86.93;68657.56;4912949;29;20056;-77
2022/08/27 07:18:50;;;;;;;8.43;3.67;;;;;;;;;;4926817;29;20069;-77
2022/08/27 07:21:18;;;;;;;7.00;3.60;;;;;;;17.05;85.94;68669.22;4929145;29;20059;-77
2022/08/27 07:23:44;;;;;;;6.05;3.50;;;;;;;;;;4931382;29;20359;-77
2022/08/27 07:26:12;;;;;;;7.65;3.60;;;;;;;17.25;85.43;68690.91;4926717;29;20066;-76
2022/08/27 07:28:37;;;;;;;7.57;3.60;;;;;;;;;;4924697;29;20102;-77
2022/08/27 07:31:04;;;;;;;9.57;3.60;;;;;;;;;;4924493;29;20063;-77
2022/08/27 07:33:30;;;;;;;9.77;3.72;;;;;;;17.34;84.98;68701.72;4925506;29;20048;-77
2022/08/27 07:35:55;;;;;;;6.60;3.15;;;;;;;17.50;84.40;68713.47;4923583;29;20102;-77
2022/08/27 07:38:20;;;;;;;9.30;3.80;;;;;;;17.59;83.71;68723.75;4929009;29;20050;-77
2022/08/27 07:40:46;;;;;;;6.78;3.28;;;;;;;17.62;83.88;68727.16;4934171;29;20079;-77
2022/08/27 07:45:56;;;;;;;9.00;3.20;;;;;;;17.99;82.52;68768.84;4929698;29;20422;-77
2022/08/27 07:48:22;;;;;;;8.75;3.50;;;;;;;;;;4899555;29;20049;-77
2022/08/27 07:50:48;;;;;;;8.77;3.35;;;;;;;;;;4914487;29;20714;-77
2022/08/27 07:53:13;;;;;;;6.00;3.10;;;;;;;;;;4926630;29;20039;-77
2022/08/27 07:55:38;;;;;;;6.05;2.63;;;;;;;18.25;81.10;68797.94;4932066;29;20527;-77
2022/08/27 07:58:05;;;;;;;5.03;2.35;;;;;;;18.36;79.91;68809.38;4931199;29;20047;-77
2022/08/27 08:00:31;;;;;;;5.85;2.50;;;;;;;18.46;79.70;68821.34;4933905;29;20149;-77
2022/08/27 08:02:57;;;;;;;7.15;2.55;;;;;;;18.53;79.55;68828.78;4930307;29;20043;-77
2022/08/27 08:05:22;;;;;;;5.43;2.67;;;;;;;18.63;79.28;68839.63;4926197;29;20131;-77
2022/08/27 08:07:49;;;;;;;5.45;2.53;;;;;;;18.82;78.26;68860.78;4905415;29;20068;-77
2022/08/27 08:10:14;;;;;;;7.25;2.50;;;;;;;18.87;77.71;68867.06;4928286;29;20040;-77
2022/08/27 08:12:40;;;;;;;5.63;2.53;;;;;;;18.83;77.65;68867.31;4932198;29;20059;-77
2022/08/27 08:15:06;;;;;;;6.18;1.92;;;;;;;;;;4918140;29;20134;-77
2022/08/27 08:17:33;;;;;;;8.35;2.75;;;;;;;19.22;76.71;68905.91;4938150;29;20051;-77
2022/08/27 08:19:59;;;;;;;6.18;2.25;;;;;;;;;;4910905;29;20040;-77
2022/08/27 08:22:24;;;;;;;4.75;1.77;;;;;;;19.45;75.84;68931.03;4936221;29;20059;-77
2022/08/27 08:24:50;;;;;;;4.18;1.90;;;;;;;19.33;73.95;68915.19;4934514;29;20036;-77
2022/08/27 08:27:15;;;;;;;7.28;1.75;;;;;;;19.39;74.75;68919.34;4929461;29;20661;-77
2022/08/27 08:29:41;;;;;;;6.82;1.95;;;;;;;19.51;74.83;68935.19;4936345;29;20077;-77
2022/08/27 08:32:07;;;;;;;3.70;1.55;;;;;;;19.54;73.83;68938.63;4926713;29;20052;-77
2022/08/27 08:34:34;;;;;;;5.63;1.98;;;;;;;19.69;74.02;68955.22;4930974;29;20043;-77
2022/08/27 08:36:59;;;;;;;5.20;1.67;;;;;;;19.78;72.08;68965.50;4930661;29;20048;-77
2022/08/27 08:39:25;;;;;;;4.70;1.63;;;;;;;;;;4908380;29;20043;-77
2022/08/27 08:41:54;;;;;;;6.38;1.70;;;;;;;19.81;71.00;68971.63;4926397;29;20047;-77
2022/08/27 08:44:19;;;;;;;5.47;2.00;;;;;;;;;;4906742;29;20503;-77
2022/08/27 08:46:55;;;;;;;3.57;1.50;;;;;;;19.99;69.90;68986.78;4923528;29;20107;-77
2022/08/27 08:49:34;;;;;;;3.72;1.52;;;;;;;20.25;70.33;69020.78;4934300;29;20491;-77
2022/08/27 08:52:16;;;;;;;4.13;1.40;;;;;;;20.39;69.55;69033.50;4924695;29;20044;-77
2022/08/27 08:54:43;;;;;;;5.85;1.73;;;;;;;20.41;69.66;69038.50;4925341;29;20050;-77
2022/08/27 08:57:25;;;;;;;5.18;2.00;;;;;;;;;;4931713;29;20043;-77
2022/08/27 08:59:55;;;;;;;5.35;1.50;;;;;;;;;;4930067;29;20078;-77
2022/08/27 09:02:20;;;;;;;5.80;1.98;;;;;;;20.50;66.82;69043.94;4928834;29;20933;-77
2022/08/27 09:04:46;;;;;;;4.55;1.70;;;;;;;20.21;68.03;69016.22;4922359;29;20071;-77
2022/08/27 09:07:14;;;;;;;4.50;1.60;;;;;;;20.12;69.12;69005.94;4926015;29;20050;-78
2022/08/27 09:10:22;;;;;;;3.70;1.53;;;;;;;20.37;68.76;69034.50;4917991;29;20515;-77
2022/08/27 09:12:50;;;;;;;;;;;;;;;20.50;67.04;69046.66;4870843;29;20635;-77
2022/08/27 09:15:22;;;;;;;4.82;1.45;;;;;;;20.55;65.06;69051.25;4924688;29;19922;-76
2022/08/27 09:17:49;;;;;;;4.80;1.30;;;;;;;20.79;65.66;69081.41;4918894;29;20462;-77
2022/08/27 09:20:18;;;;;;;3.15;1.30;;;;;;;20.76;65.69;69075.28;4924334;29;20047;-76
2022/08/27 09:23:15;;;;;;;7.07;1.67;;;;;;;20.46;64.57;69044.22;4900907;29;20134;-77
2022/08/27 09:25:43;;;;;;;4.07;1.48;;;;;;;20.35;65.71;69032.22;4904711;29;20040;-77
2022/08/27 09:31:11;;;;;;;4.30;1.10;;;;;;;20.32;65.26;69028.78;4922286;29;20063;-77
2022/08/27 09:33:36;;;;;;;3.97;1.60;;;;;;;20.42;65.52;69045.63;4926657;29;20036;-77
2022/08/27 09:36:07;;;;;;;3.85;1.55;;;;;;;20.70;64.19;69071.13;4925655;29;20130;-77
2022/08/27 09:38:34;;;;;;;4.13;1.52;;;;;;;21.20;63.47;69124.44;4908989;29;20064;-77
2022/08/27 09:41:04;;;;;;;4.97;1.35;;;;;;;21.25;61.88;69130.19;4922018;29;20038;-77
2022/08/27 09:43:30;;;;;;;3.33;1.27;;;;;;;21.17;61.82;69124.28;4937855;29;20758;-77
2022/08/27 09:46:16;;;;;;;5.80;1.40;;;;;;;21.07;60.77;69110.16;4945012;29;20039;-78
2022/08/27 09:48:42;;;;;;;3.47;1.27;;;;;;;21.31;60.63;69136.47;4931695;29;20043;-78
2022/08/27 09:51:12;;;;;;;6.25;1.40;;;;;;;21.59;59.80;69170.69;4946882;29;20197;-77
2022/08/27 09:53:51;;;;;;;4.43;1.35;;;;;;;21.44;59.59;69153.53;4954344;29;20095;-78
2022/08/27 09:56:36;;;;;;;6.00;1.38;;;;;;;;;;4955439;29;20513;-78
2022/08/27 09:59:03;;;;;;;4.43;1.20;;;;;;;21.10;60.40;69115.72;4957879;29;20094;-78
2022/08/27 10:01:32;;;;;;;3.47;1.55;;;;;;;21.08;60.66;69110.72;4944256;29;20043;-78
2022/08/27 10:04:11;;;;;;;4.10;1.48;;;;;;;21.18;60.14;69120.03;4931879;29;20526;-78
2022/08/27 10:06:43;;;;;;;5.40;1.70;;;;;;;21.30;59.10;69138.59;4931618;29;20043;-78
2022/08/27 10:09:31;;;;;;;5.00;1.42;;;;;;;21.36;60.05;69142.19;4932108;29;20091;-78
2022/08/27 10:12:22;;;;;;;6.50;1.80;;;;;;;21.05;59.62;69107.88;4932658;29;20114;-78
2022/08/27 10:14:54;;;;;;;7.53;1.50;;;;;;;21.02;60.62;69107.16;4921997;29;20109;-78
2022/08/27 10:17:25;;;;;;;5.75;1.50;;;;;;;21.15;60.63;69118.75;4931834;29;20048;-78
2022/08/27 10:20:18;;;;;;;7.45;1.70;;;;;;;21.36;60.48;69145.50;4933274;29;20043;-78
2022/08/27 10:22:52;;;;;;;4.10;1.58;;;;;;;21.65;59.34;69174.25;4926366;29;20099;-78
2022/08/27 10:25:27;;;;;;;3.67;1.30;;;;;;;21.78;58.67;69191.84;4902060;29;20059;-78
2022/08/27 10:28:20;;;;;;;5.72;1.67;;;;;;;21.80;58.93;69194.69;4911530;29;20052;-78
2022/08/27 10:31:24;;;;;;;3.45;1.45;;;;;;;21.71;57.11;69178.97;4922455;29;20479;-77
2022/08/27 10:34:05;;;;;;;3.85;1.23;;;;;;;21.56;58.79;69161.81;4892098;29;20048;-78
2022/08/27 10:37:00;;;;;;;5.53;1.35;;;;;;;21.62;57.67;69171.97;4927823;23;20414;-88
2022/08/27 10:39:34;;;;;;;4.25;1.33;;;;;;;21.70;58.31;69183.25;4936689;29;20494;-88
2022/08/27 10:42:15;;;;;;;5.68;1.50;;;;;;;22.12;56.32;69235.59;4925127;29;20048;-88
2022/08/27 10:44:44;;;;;;;3.65;1.33;;;;;;;21.97;56.50;69210.31;4931475;29;20044;-86
2022/08/27 10:47:09;;;;;;;2.47;1.08;;;;;;;;;;4905295;29;20052;-87
2022/08/27 10:49:43;;;;;;;6.28;1.60;;;;;;;21.82;56.82;69197.00;4912932;29;20048;-87
2022/08/27 10:52:28;;;;;;;4.88;1.38;;;;;;;21.91;56.78;69203.44;4881086;29;20085;-86
2022/08/27 10:55:01;;;;;;;5.00;1.50;;;;;;;21.98;55.02;69209.31;4866732;29;20488;-87
2022/08/27 10:58:03;;;;;;;3.85;1.10;;;;;;;22.12;57.66;69227.47;4868750;29;20072;-87
2022/08/27 11:00:55;;;;;;;3.97;1.27;;;;;;;;;;4865408;29;20041;-86
2022/08/27 11:03:33;;;;;;;4.03;1.10;;;;;;;22.34;57.29;69252.13;4870869;29;20136;-87
2022/08/27 11:06:02;;;;;;;3.57;1.30;;;;;;;22.21;58.55;69237.22;4842285;29;20049;-87
2022/08/27 11:08:43;;;;;;;;;;;;;;;22.26;58.05;69246.25;4861914;29;20597;-87
2022/08/27 11:11:19;;;;;;;4.25;1.58;;;;;;;22.10;58.43;69225.19;4859760;29;20064;-87
2022/08/27 11:13:50;;;;;;;5.63;1.48;;;;;;;21.90;59.02;69205.59;4865069;29;20513;-88
2022/08/27 11:16:17;;;;;;;3.45;1.48;;;;;;;21.86;59.19;69201.00;4873829;29;20045;-88
2022/08/27 11:18:50;;;;;;;4.65;1.30;;;;;;;21.97;59.28;69213.03;4895838;29;20070;-87
2022/08/27 11:21:24;;;;;;;2.70;1.30;;;;;;;21.91;58.51;69201.31;4910748;29;20305;-88
2022/08/27 11:23:57;;;;;;;5.75;1.63;;;;;;;21.89;58.92;69201.16;4910010;29;20051;-87
2022/08/27 11:26:22;;;;;;;5.10;1.60;;;;;;;;;;4911722;29;20525;-87
2022/08/27 11:28:52;;;;;;;4.97;1.70;;;;;;;21.58;59.53;69170.09;4928177;29;20134;-86
2022/08/27 11:31:32;;;;;;;4.50;1.42;;;;;;;21.68;59.18;69175.56;4929386;29;20047;-86
2022/08/27 11:34:09;;;;;;;4.22;1.60;;;;;;;21.67;57.95;69177.13;4925153;29;20044;-86
2022/08/27 11:36:47;;;;;;;3.08;1.35;;;;;;;21.82;58.52;69188.88;4931443;29;20541;-86
2022/08/27 11:39:18;;;;;;;5.60;1.40;;;;;;;21.66;58.98;69173.25;4931832;29;20488;-86
2022/08/27 11:41:57;;;;;;;6.18;1.50;;;;;;;21.79;59.63;69193.00;4922331;29;20291;-86
2022/08/27 11:44:25;;;;;;;3.20;1.30;;;;;;;21.79;58.46;69193.00;4916804;29;20064;-85
2022/08/27 11:46:56;;;;;;;4.73;1.37;;;;;;;22.05;58.41;69222.19;4923446;29;20074;-86
2022/08/27 11:49:39;;;;;;;6.72;1.83;;;;;;;22.30;54.84;69245.41;4921546;29;20284;-86
2022/08/27 11:52:07;;;;;;;4.22;1.67;;;;;;;22.16;56.01;69229.34;4930007;29;20067;-86
2022/08/27 11:54:51;;;;;;;5.20;1.48;;;;;;;22.24;55.96;69243.97;4931174;29;20055;-86
2022/08/27 11:57:33;;;;;;;4.57;1.70;;;;;;;22.02;56.22;69216.59;4920200;29;20123;-85
2022/08/27 12:00:15;;;;;;;6.38;1.58;;;;;;;22.08;56.50;69225.63;4912666;29;20040;-86
2022/08/27 12:02:42;;;;;;;5.30;1.80;;;;;;;21.89;56.29;69201.16;4930789;29;20123;-86
2022/08/27 12:05:20;;;;;;;4.60;1.33;;;;;;;21.87;56.72;69199.44;4935047;29;20040;-85
2022/08/27 12:07:50;;;;;;;3.45;1.15;;;;;;;21.77;56.68;69188.56;4914378;29;20135;-85
2022/08/27 12:10:28;;;;;;;4.07;1.50;;;;;;;21.77;57.49;69191.25;4921449;29;20048;-85
2022/08/27 12:12:56;;;;;;;6.35;1.73;;;;;;;22.02;56.61;69218.75;4903793;29;20078;-86
2022/08/27 12:15:50;;;;;;;5.20;1.43;;;;;;;22.10;56.71;69225.19;4912863;29;20044;-85
2022/08/27 12:18:40;;;;;;;5.22;1.40;;;;;;;21.75;56.88;69194.41;4912938;29;20268;-86
2022/08/27 12:21:20;;;;;;;4.18;1.45;;;;;;;21.68;57.20;69175.56;4913523;29;20058;-86
2022/08/27 12:24:00;;;;;;;4.13;1.35;;;;;;;;;;4909135;29;20044;-86
2022/08/27 12:26:32;;;;;;;5.63;1.40;;;;;;;21.69;58.20;69178.84;4892855;29;20044;-86
2022/08/27 12:29:24;;;;;;;3.72;1.35;;;;;;;21.71;57.46;69175.72;4921082;29;20040;-86
2022/08/27 12:32:01;;;;;;;3.90;1.15;;;;;;;;;;4910604;29;20542;-86
2022/08/27 12:34:28;;;;;;;3.88;1.20;;;;;;;21.77;57.55;69185.28;4916273;29;20048;-86